Time;durP1;ratioP1;P1;durP2;ratioP2;P2;SDS_P1;SDS_P2;PMS_P1;PMS_P2;Temp;Humidity;BMP_temperature;BMP_pressure;BME280_temperature;BME280_humidity;BME280_pressure;Samples;Min_cycle;Max_cycle;Signal;HPM_P1;HPM_P2
2022/06/09 00:01:10;;;;;;;12.65;2.97;;;14.00;99.90;;;;;;5030684;28;20112;-90
2022/06/09 00:04:02;;;;;;;12.15;3.95;;;14.00;99.90;;;;;;5027196;28;20053;-90
2022/06/09 00:06:36;;;;;;;13.30;2.80;;;14.00;99.90;;;;;;5026524;28;20077;-91
2022/06/09 00:09:04;;;;;;;12.60;3.33;;;14.10;99.90;;;;;;5032412;28;20287;-89
2022/06/09 00:11:33;;;;;;;17.23;3.20;;;14.00;99.90;;;;;;5027442;28;20072;-91
2022/06/09 00:13:59;;;;;;;13.73;2.72;;;14.10;99.90;;;;;;5021543;28;20028;-89
2022/06/09 00:16:25;;;;;;;12.82;3.58;;;14.10;99.90;;;;;;5031869;28;20415;-89
2022/06/09 00:18:51;;;;;;;13.32;3.53;;;14.10;99.90;;;;;;5033346;28;20017;-90
2022/06/09 00:21:17;;;;;;;10.75;3.05;;;14.10;99.90;;;;;;5031590;28;20116;-88
2022/06/09 00:23:42;;;;;;;10.95;2.97;;;14.10;99.90;;;;;;5032044;28;20025;-91
2022/06/09 00:26:08;;;;;;;18.77;3.83;;;14.10;99.90;;;;;;5030645;28;20036;-90
2022/06/09 00:28:34;;;;;;;14.60;3.13;;;14.10;99.90;;;;;;5030547;28;20033;-87
2022/06/09 00:31:00;;;;;;;12.05;3.47;;;14.10;99.90;;;;;;5032607;28;20442;-91
2022/06/09 00:33:26;;;;;;;11.43;2.90;;;14.10;99.90;;;;;;5031050;28;20021;-91
2022/06/09 00:35:52;;;;;;;14.93;3.10;;;14.20;99.90;;;;;;5030904;28;20049;-90
2022/06/09 00:38:17;;;;;;;12.43;3.20;;;14.10;99.90;;;;;;5028281;28;20061;-90
2022/06/09 00:40:43;;;;;;;17.95;4.88;;;14.10;99.90;;;;;;5032688;28;20029;-91
2022/06/09 00:43:08;;;;;;;16.70;3.78;;;14.10;99.90;;;;;;5029434;28;20035;-91
2022/06/09 00:45:52;;;;;;;14.57;3.42;;;14.10;99.90;;;;;;5032016;28;20131;-91
2022/06/09 00:48:37;;;;;;;13.77;3.72;;;14.10;99.90;;;;;;5027470;28;20107;-89
2022/06/09 00:51:27;;;;;;;14.75;3.33;;;14.10;99.90;;;;;;5030454;28;20072;-89
2022/06/09 00:54:08;;;;;;;16.73;4.03;;;14.10;99.90;;;;;;5027998;28;20021;-91
2022/06/09 00:56:37;;;;;;;15.73;4.30;;;14.10;99.90;;;;;;5026509;28;20118;-91
2022/06/09 00:59:03;;;;;;;18.13;4.25;;;14.10;99.90;;;;;;5020868;28;20053;-92
2022/06/09 01:01:29;;;;;;;12.68;3.65;;;14.10;99.90;;;;;;5027838;28;20025;-91
2022/06/09 01:04:01;;;;;;;10.35;3.42;;;14.00;99.90;;;;;;5027116;28;20022;-89
2022/06/09 01:06:34;;;;;;;14.75;4.75;;;14.00;99.90;;;;;;5026788;28;20119;-91
2022/06/09 01:09:13;;;;;;;16.33;5.05;;;13.90;99.90;;;;;;5027227;28;20040;-91
2022/06/09 01:11:39;;;;;;;12.55;3.67;;;13.90;99.90;;;;;;5029610;28;20033;-91
2022/06/09 01:14:07;;;;;;;14.40;3.83;;;13.80;99.90;;;;;;5030040;28;20037;-89
2022/06/09 01:16:51;;;;;;;20.75;4.60;;;13.80;99.90;;;;;;5032356;28;20550;-91
2022/06/09 01:19:44;;;;;;;19.83;4.15;;;13.70;99.90;;;;;;5042212;28;20171;-90
2022/06/09 01:22:44;;;;;;;18.63;3.97;;;13.60;99.90;;;;;;5027101;28;20025;-91
2022/06/09 01:25:32;;;;;;;14.27;3.65;;;13.60;99.90;;;;;;5030782;28;20105;-92
2022/06/09 01:28:25;;;;;;;16.38;3.70;;;13.60;99.90;;;;;;5029155;28;20053;-92
2022/06/09 01:31:01;;;;;;;13.82;4.00;;;13.50;99.90;;;;;;5041130;28;20090;-91
2022/06/09 01:33:45;;;;;;;15.75;4.15;;;13.40;99.90;;;;;;5030712;28;20033;-91
2022/06/09 01:36:31;;;;;;;17.38;3.85;;;13.40;99.90;;;;;;5041984;28;20413;-92
2022/06/09 01:38:58;;;;;;;21.23;4.28;;;13.40;99.90;;;;;;5026139;28;20053;-92
2022/06/09 01:41:25;;;;;;;19.42;4.50;;;13.30;99.90;;;;;;5030003;28;20033;-92
2022/06/09 01:43:54;;;;;;;19.92;4.82;;;13.30;99.90;;;;;;5030524;28;20500;-92
2022/06/09 01:46:30;;;;;;;18.65;3.92;;;13.30;99.90;;;;;;5029358;28;20055;-90
2022/06/09 01:49:21;;;;;;;19.55;4.65;;;13.20;99.90;;;;;;5029486;28;20021;-92
2022/06/09 01:51:50;;;;;;;15.45;4.63;;;13.20;99.90;;;;;;5020281;28;20041;-91
2022/06/09 01:54:21;;;;;;;19.33;3.83;;;13.20;99.90;;;;;;5029451;28;20025;-92
2022/06/09 01:57:03;;;;;;;19.65;3.97;;;13.10;99.90;;;;;;5027474;28;20037;-90
2022/06/09 01:59:40;;;;;;;18.63;4.50;;;13.10;99.90;;;;;;5029097;28;20120;-92
2022/06/09 02:02:31;;;;;;;20.25;4.28;;;13.10;99.90;;;;;;5027987;28;20374;-91
2022/06/09 02:05:05;;;;;;;20.75;4.32;;;13.00;99.90;;;;;;5029114;28;20025;-91
2022/06/09 02:07:32;;;;;;;18.40;4.25;;;13.00;99.90;;;;;;5030353;28;20033;-92
2022/06/09 02:10:19;;;;;;;20.38;3.80;;;13.00;99.90;;;;;;5026320;28;20116;-90
2022/06/09 02:12:45;;;;;;;24.50;4.05;;;13.00;99.90;;;;;;5022438;28;20029;-92
2022/06/09 02:15:16;;;;;;;17.95;4.15;;;12.90;99.90;;;;;;5027754;28;20489;-89
2022/06/09 02:17:48;;;;;;;22.80;5.57;;;12.90;99.90;;;;;;5029385;28;20110;-89
2022/06/09 02:20:16;;;;;;;18.48;3.95;;;12.90;99.90;;;;;;5024039;28;20111;-91
2022/06/09 02:22:42;;;;;;;20.77;4.53;;;12.90;99.90;;;;;;5029748;28;20380;-92
2022/06/09 02:25:08;;;;;;;15.98;4.43;;;12.80;99.90;;;;;;5032251;28;20033;-90
2022/06/09 02:27:33;;;;;;;23.15;4.82;;;12.80;99.90;;;;;;5029745;28;20047;-90
2022/06/09 02:29:59;;;;;;;18.90;4.68;;;12.80;99.90;;;;;;5030613;28;20037;-90
2022/06/09 02:32:25;;;;;;;20.77;5.35;;;12.80;99.90;;;;;;5031279;28;20048;-92
2022/06/09 02:34:50;;;;;;;16.08;3.95;;;12.80;99.90;;;;;;5021815;28;20077;-92
2022/06/09 02:37:16;;;;;;;19.05;4.82;;;12.90;99.90;;;;;;5030859;28;20032;-91
2022/06/09 02:39:41;;;;;;;22.92;4.53;;;12.90;99.90;;;;;;5041274;28;20026;-89
2022/06/09 02:42:07;;;;;;;21.50;4.82;;;12.90;99.90;;;;;;5031502;28;20443;-89
2022/06/09 02:44:33;;;;;;;17.42;4.28;;;12.90;99.90;;;;;;5044431;28;20477;-89
2022/06/09 02:46:59;;;;;;;23.10;4.88;;;13.00;99.90;;;;;;5022586;28;20834;-90
2022/06/09 02:49:26;;;;;;;20.10;4.88;;;13.00;99.90;;;;;;5029406;28;20022;-90
2022/06/09 02:51:52;;;;;;;24.73;5.97;;;13.00;99.90;;;;;;5022056;28;20036;-91
2022/06/09 02:54:17;;;;;;;22.45;4.78;;;13.00;99.90;;;;;;5023681;28;20039;-89
2022/06/09 02:56:43;;;;;;;18.15;4.60;;;13.00;99.90;;;;;;5029805;28;20039;-90
2022/06/09 02:59:09;;;;;;;25.15;6.28;;;13.00;99.90;;;;;;5041537;28;20026;-91
2022/06/09 03:01:36;;;;;;;18.35;7.35;;;13.10;99.90;;;;;;5029672;28;20076;-90
2022/06/09 03:04:02;;;;;;;18.25;5.05;;;13.10;99.90;;;;;;5028442;28;20036;-90
2022/06/09 03:06:27;;;;;;;15.93;4.80;;;13.10;99.90;;;;;;5033032;28;20032;-91
2022/06/09 03:08:53;;;;;;;23.90;5.82;;;13.10;99.90;;;;;;5031330;28;20414;-89
2022/06/09 03:11:19;;;;;;;21.88;4.90;;;13.10;99.90;;;;;;5020684;28;20516;-89
2022/06/09 03:13:44;;;;;;;21.33;5.88;;;13.00;99.90;;;;;;5031946;28;20056;-90
2022/06/09 03:16:13;;;;;;;28.55;6.18;;;13.00;99.90;;;;;;5025219;28;20029;-90
2022/06/09 03:18:39;;;;;;;19.58;5.53;;;13.00;99.90;;;;;;5027569;28;20021;-91
2022/06/09 03:21:05;;;;;;;17.73;6.05;;;13.00;99.90;;;;;;5027912;28;20048;-90
2022/06/09 03:23:31;;;;;;;23.58;6.10;;;13.00;99.90;;;;;;5014993;28;20049;-89
2022/06/09 03:25:58;;;;;;;24.20;6.57;;;13.00;99.90;;;;;;5010881;28;20059;-90
2022/06/09 03:28:23;;;;;;;26.77;5.70;;;13.00;99.90;;;;;;5011228;28;20048;-89
2022/06/09 03:30:49;;;;;;;22.08;6.45;;;13.10;99.90;;;;;;5018412;28;20037;-90
2022/06/09 03:33:15;;;;;;;20.10;6.95;;;13.10;99.90;;;;;;5018860;28;20271;-88
2022/06/09 03:35:40;;;;;;;28.17;9.05;;;13.10;99.90;;;;;;5013329;28;20143;-90
2022/06/09 03:38:06;;;;;;;21.35;7.28;;;13.10;99.90;;;;;;5017038;28;20070;-91
2022/06/09 03:40:32;;;;;;;32.25;7.38;;;13.20;99.90;;;;;;5016013;28;20032;-91
2022/06/09 03:42:59;;;;;;;21.88;7.47;;;13.20;99.90;;;;;;5015590;28;20017;-90
2022/06/09 03:45:25;;;;;;;30.35;8.32;;;13.30;99.90;;;;;;5022261;28;20071;-92
2022/06/09 03:47:51;;;;;;;37.40;9.00;;;13.30;99.90;;;;;;5012648;28;20145;-89
2022/06/09 03:50:20;;;;;;;34.63;9.05;;;13.40;99.90;;;;;;5015806;28;20142;-91
2022/06/09 03:52:46;;;;;;;27.30;9.05;;;13.50;99.90;;;;;;5028177;28;20029;-89
2022/06/09 03:55:12;;;;;;;25.80;8.52;;;13.50;99.90;;;;;;5025443;28;21265;-89
2022/06/09 03:57:37;;;;;;;33.15;9.65;;;13.60;99.90;;;;;;5011262;28;20026;-92
2022/06/09 04:00:08;;;;;;;34.35;9.75;;;13.70;99.90;;;;;;5014432;28;20540;-91
2022/06/09 04:02:34;;;;;;;36.92;10.02;;;13.80;99.90;;;;;;5013826;28;20053;-91
2022/06/09 04:05:01;;;;;;;24.20;10.55;;;13.80;99.90;;;;;;5011554;28;20116;-89
2022/06/09 04:07:27;;;;;;;29.13;10.68;;;13.90;99.90;;;;;;5015666;28;20025;-93
2022/06/09 04:09:53;;;;;;;36.53;11.70;;;13.90;99.90;;;;;;5025194;28;20025;-91
2022/06/09 04:12:18;;;;;;;32.22;11.30;;;13.90;99.90;;;;;;5035885;28;20082;-90
2022/06/09 04:14:44;;;;;;;37.58;12.60;;;14.00;99.90;;;;;;5020713;28;20033;-91
2022/06/09 04:17:12;;;;;;;35.03;12.02;;;13.90;99.90;;;;;;5027407;28;20037;-92
2022/06/09 04:19:38;;;;;;;36.42;10.75;;;13.90;99.90;;;;;;5027578;28;20056;-91
2022/06/09 04:22:04;;;;;;;30.75;10.43;;;14.00;99.90;;;;;;5029341;28;20108;-90
2022/06/09 04:24:30;;;;;;;27.08;10.23;;;13.90;99.90;;;;;;5029121;28;20454;-93
2022/06/09 04:26:56;;;;;;;27.88;10.32;;;13.90;99.90;;;;;;5031712;28;20056;-91
2022/06/09 04:29:22;;;;;;;29.70;9.75;;;13.90;99.90;;;;;;5032590;28;20061;-90
2022/06/09 04:31:47;;;;;;;33.03;11.10;;;14.00;99.90;;;;;;5026547;28;20401;-91
2022/06/09 04:34:13;;;;;;;31.35;9.82;;;14.00;99.90;;;;;;5027440;28;20032;-91
2022/06/09 04:36:39;;;;;;;29.42;10.10;;;14.00;99.90;;;;;;5035659;28;20029;-90
2022/06/09 04:39:06;;;;;;;25.05;9.48;;;14.00;99.90;;;;;;5031945;28;20057;-91
2022/06/09 04:41:32;;;;;;;30.02;10.45;;;14.00;99.90;;;;;;5045071;28;20025;-92
2022/06/09 04:43:58;;;;;;;26.40;9.82;;;14.10;99.90;;;;;;5032509;28;20102;-91
2022/06/09 04:46:24;;;;;;;30.95;9.68;;;14.10;99.90;;;;;;5025880;28;20108;-91
2022/06/09 04:48:50;;;;;;;31.92;9.00;;;14.20;99.90;;;;;;5025848;28;20477;-92
2022/06/09 04:51:19;;;;;;;38.85;10.60;;;14.20;99.90;;;;;;5031340;28;20037;-92
2022/06/09 04:53:45;;;;;;;31.58;9.63;;;14.20;99.90;;;;;;5026565;28;20021;-91
2022/06/09 04:56:11;;;;;;;31.13;8.98;;;14.30;99.90;;;;;;5031036;28;20056;-91
2022/06/09 04:58:38;;;;;;;33.03;9.13;;;14.30;99.90;;;;;;5025511;28;20476;-91
2022/06/09 05:01:05;;;;;;;27.73;8.68;;;14.30;99.90;;;;;;5032696;28;20527;-90
2022/06/09 05:03:32;;;;;;;36.63;9.18;;;14.30;99.90;;;;;;5029004;28;20025;-91
2022/06/09 05:05:58;;;;;;;30.48;9.07;;;14.40;99.90;;;;;;5033386;28;20030;-91
2022/06/09 05:08:24;;;;;;;23.95;9.15;;;14.40;99.90;;;;;;5038324;28;20108;-90
2022/06/09 05:10:49;;;;;;;26.27;8.73;;;14.60;99.90;;;;;;5031998;28;20052;-89
2022/06/09 05:13:16;;;;;;;27.60;7.22;;;14.90;99.90;;;;;;5029815;28;20497;-89
2022/06/09 05:15:49;;;;;;;17.88;5.57;;;15.40;99.90;;;;;;5030849;28;20187;-90
2022/06/09 05:18:22;;;;;;;26.08;6.55;;;15.90;99.90;;;;;;5032979;28;20029;-88
2022/06/09 05:20:51;;;;;;;;;;;16.10;99.90;;;;;;5029536;28;20033;-91
2022/06/09 05:23:20;;;;;;;17.00;5.57;;;16.30;99.90;;;;;;5044131;28;19913;-91
2022/06/09 05:25:46;;;;;;;11.82;4.15;;;16.50;99.90;;;;;;5043423;28;20022;-89
2022/06/09 05:28:14;;;;;;;22.52;5.32;;;16.70;99.90;;;;;;5032881;28;20485;-91
2022/06/09 05:30:39;;;;;;;21.00;4.57;;;17.00;99.90;;;;;;5029251;28;20029;-90
2022/06/09 05:33:05;;;;;;;15.57;4.25;;;17.20;99.90;;;;;;5025409;28;20056;-90
2022/06/09 05:35:31;;;;;;;14.52;3.72;;;17.20;99.90;;;;;;5028882;28;20064;-89
2022/06/09 05:46:10;;;;;;;9.88;2.63;;;17.60;99.90;;;;;;5044237;28;20090;-90
2022/06/09 05:48:36;;;;;;;17.20;3.70;;;17.50;99.90;;;;;;5028121;28;20041;-85
2022/06/09 05:51:02;;;;;;;15.05;3.35;;;17.30;99.90;;;;;;5022359;28;20063;-85
2022/06/09 05:53:28;;;;;;;11.35;3.13;;;17.10;99.90;;;;;;5027029;28;20029;-90
2022/06/09 05:55:54;;;;;;;14.43;3.75;;;17.00;99.90;;;;;;5028042;28;20043;-89
2022/06/09 05:58:19;;;;;;;18.30;3.78;;;17.00;99.90;;;;;;5035740;28;20025;-90
2022/06/09 06:00:45;;;;;;;12.52;3.47;;;16.90;99.90;;;;;;5023938;28;20044;-88
2022/06/09 06:03:12;;;;;;;13.15;3.33;;;16.80;99.90;;;;;;5020177;28;20021;-88
2022/06/09 06:08:23;;;;;;;16.05;3.20;;;16.80;99.90;;;;;;5041820;28;20033;-90
2022/06/09 06:10:48;;;;;;;11.35;3.53;;;16.90;99.90;;;;;;5025420;28;20041;-90
2022/06/09 06:13:14;;;;;;;10.13;3.17;;;17.00;99.90;;;;;;5022082;28;20029;-89
2022/06/09 06:15:40;;;;;;;13.95;3.22;;;17.10;99.90;;;;;;5023563;28;20040;-87
2022/06/09 06:18:06;;;;;;;12.30;2.95;;;17.20;99.90;;;;;;5025077;28;20051;-87
2022/06/09 06:20:32;;;;;;;13.63;3.17;;;17.40;99.90;;;;;;5022011;28;20021;-86
2022/06/09 06:22:57;;;;;;;10.38;1.80;;;17.60;99.90;;;;;;5018389;28;20021;-86
2022/06/09 06:25:24;;;;;;;4.72;1.50;;;17.80;99.90;;;;;;5021720;28;20033;-87
2022/06/09 06:27:50;;;;;;;5.45;1.23;;;17.90;99.90;;;;;;5022892;28;20370;-87
2022/06/09 06:30:16;;;;;;;3.50;0.70;;;17.90;99.90;;;;;;5025334;28;20090;-87
2022/06/09 06:32:42;;;;;;;4.45;0.47;;;17.70;99.90;;;;;;5024237;28;20020;-87
2022/06/09 06:35:08;;;;;;;2.90;0.50;;;17.60;99.90;;;;;;5022734;28;20111;-85
2022/06/09 06:37:34;;;;;;;2.60;0.40;;;17.40;99.90;;;;;;5019692;28;20941;-86
2022/06/09 06:39:59;;;;;;;2.08;0.40;;;17.30;99.90;;;;;;5019529;28;20063;-86
2022/06/09 06:42:25;;;;;;;2.60;0.50;;;17.30;99.90;;;;;;5021861;28;21707;-86
2022/06/09 06:44:51;;;;;;;1.52;0.50;;;17.40;99.90;;;;;;5024304;28;20025;-86
2022/06/09 06:47:16;;;;;;;2.08;0.40;;;17.50;99.90;;;;;;5025603;28;20017;-87
2022/06/09 06:49:42;;;;;;;1.27;0.30;;;17.70;99.90;;;;;;5025773;28;20029;-88
2022/06/09 06:52:08;;;;;;;2.58;1.08;;;17.80;99.90;;;;;;5022606;28;20103;-87
2022/06/09 06:54:34;;;;;;;0.50;0.10;;;17.80;99.90;;;;;;5023786;28;20397;-87
2022/06/09 06:57:00;;;;;;;1.05;0.20;;;17.80;99.90;;;;;;5031306;28;20029;-85
2022/06/09 06:59:25;;;;;;;1.23;0.50;;;17.80;99.90;;;;;;5024330;28;20396;-87
2022/06/09 07:01:51;;;;;;;1.08;0.10;;;17.90;99.90;;;;;;5026279;28;20029;-86
2022/06/09 07:04:17;;;;;;;1.10;0.10;;;18.00;99.90;;;;;;5027932;28;20033;-90
2022/06/09 07:06:42;;;;;;;3.42;0.20;;;18.00;99.90;;;;;;5032746;28;20021;-90
2022/06/09 07:09:08;;;;;;;1.33;0.20;;;17.90;99.90;;;;;;5031809;28;20033;-89
2022/06/09 07:11:34;;;;;;;3.15;0.20;;;17.80;99.90;;;;;;5035083;28;20040;-90
2022/06/09 07:14:00;;;;;;;0.85;0.20;;;17.80;99.90;;;;;;5033853;28;20067;-89
2022/06/09 07:16:25;;;;;;;0.47;0.28;;;17.90;99.90;;;;;;5034454;28;20100;-89
2022/06/09 07:18:51;;;;;;;1.83;0.20;;;18.00;99.90;;;;;;5029601;28;20022;-89
2022/06/09 07:21:16;;;;;;;0.40;0.15;;;18.00;99.90;;;;;;5025396;28;20029;-89
2022/06/09 07:23:42;;;;;;;1.08;0.30;;;18.00;99.90;;;;;;5036825;28;20022;-89
2022/06/09 07:26:08;;;;;;;1.88;0.10;;;18.00;99.90;;;;;;5021318;28;20025;-90
2022/06/09 07:28:34;;;;;;;0.55;0.10;;;18.00;99.90;;;;;;5021281;28;20021;-89
2022/06/09 07:31:03;;;;;;;0.50;0.13;;;18.00;99.90;;;;;;5031319;28;20067;-89
2022/06/09 07:33:32;;;;;;;1.10;0.10;;;18.00;99.90;;;;;;5050707;28;20488;-90
2022/06/09 07:35:59;;;;;;;1.23;0.22;;;17.90;99.90;;;;;;5032551;28;20053;-89
2022/06/09 07:38:26;;;;;;;3.90;0.30;;;17.90;99.90;;;;;;5034688;28;20108;-90
2022/06/09 07:40:52;;;;;;;0.70;0.20;;;17.90;99.90;;;;;;5032887;28;20040;-88
2022/06/09 07:43:21;;;;;;;1.23;0.20;;;17.80;99.90;;;;;;5033628;28;20476;-91
2022/06/09 07:45:48;;;;;;;0.93;0.20;;;17.80;99.90;;;;;;5033778;28;20079;-92
2022/06/09 07:48:14;;;;;;;0.93;0.30;;;17.80;99.90;;;;;;5034688;28;20021;-88
2022/06/09 07:50:40;;;;;;;1.92;0.30;;;17.70;99.90;;;;;;5031188;28;20475;-87
2022/06/09 07:53:06;;;;;;;2.30;0.40;;;17.60;99.90;;;;;;5030490;28;20051;-87
2022/06/09 07:55:33;;;;;;;1.65;0.40;;;17.60;99.90;;;;;;5031033;28;20493;-88
2022/06/09 07:57:58;;;;;;;1.08;0.30;;;17.60;99.90;;;;;;5031266;28;20071;-88
2022/06/09 08:00:24;;;;;;;2.38;0.30;;;17.70;99.90;;;;;;5031854;28;20033;-87
2022/06/09 08:02:51;;;;;;;2.28;0.30;;;17.90;99.90;;;;;;5055588;28;20056;-88
2022/06/09 08:05:19;;;;;;;1.13;0.30;;;18.00;99.90;;;;;;5038531;28;20063;-88
2022/06/09 08:07:45;;;;;;;1.67;0.50;;;18.10;99.90;;;;;;5033056;28;20034;-89
2022/06/09 08:10:17;;;;;;;2.67;0.50;;;18.20;99.90;;;;;;5053900;28;20396;-90
2022/06/09 08:12:44;;;;;;;2.15;0.55;;;18.40;99.90;;;;;;5032969;28;20028;-89
2022/06/09 08:15:10;;;;;;;1.95;0.50;;;18.50;99.90;;;;;;5048168;28;20099;-88
2022/06/09 08:17:38;;;;;;;2.78;0.45;;;18.60;99.90;;;;;;5038009;28;20481;-88
2022/06/09 08:20:05;;;;;;;5.30;0.40;;;18.80;99.90;;;;;;5036390;28;20032;-89
2022/06/09 08:22:31;;;;;;;2.25;0.50;;;19.00;99.90;;;;;;5027455;28;20175;-89
2022/06/09 08:24:56;;;;;;;1.80;0.50;;;19.30;99.90;;;;;;5032763;28;20116;-89
2022/06/09 08:27:22;;;;;;;1.48;0.52;;;19.50;99.90;;;;;;5033747;28;20029;-89
2022/06/09 08:29:47;;;;;;;7.25;0.60;;;19.50;99.90;;;;;;5050552;28;20045;-92
2022/06/09 08:32:13;;;;;;;1.95;0.50;;;19.40;99.90;;;;;;5034211;28;20449;-91
2022/06/09 08:34:39;;;;;;;2.03;0.50;;;19.30;99.90;;;;;;5038728;28;20095;-89
2022/06/09 08:37:05;;;;;;;2.40;0.50;;;19.40;99.90;;;;;;5050631;28;20048;-90
2022/06/09 08:39:31;;;;;;;1.85;0.40;;;19.50;99.90;;;;;;5037871;28;20027;-90
2022/06/09 08:42:23;;;;;;;2.83;0.52;;;19.60;99.90;;;;;;5034618;28;20035;-88
2022/06/09 08:45:11;;;;;;;6.33;0.60;;;19.80;99.90;;;;;;5030561;28;20037;-90
2022/06/09 08:47:45;;;;;;;2.03;0.30;;;20.20;99.90;;;;;;5048461;28;20096;-90
2022/06/09 08:50:12;;;;;;;2.05;0.43;;;20.50;99.90;;;;;;5043368;28;20040;-89
2022/06/09 08:52:50;;;;;;;2.70;0.40;;;21.00;99.90;;;;;;5030824;28;20461;-89
2022/06/09 08:55:19;;;;;;;2.28;0.50;;;21.00;99.90;;;;;;5043517;28;20039;-88
2022/06/09 08:57:46;;;;;;;2.85;0.40;;;20.80;99.90;;;;;;5051608;28;20029;-88
2022/06/09 09:00:16;;;;;;;1.90;0.40;;;20.40;99.90;;;;;;5024813;28;20025;-88
2022/06/09 09:02:48;;;;;;;3.17;0.40;;;19.90;99.90;;;;;;5039734;28;20025;-89
2022/06/09 09:05:23;;;;;;;2.78;0.40;;;19.50;99.90;;;;;;5021387;28;20029;-88
2022/06/09 09:07:51;;;;;;;1.52;0.30;;;19.20;99.90;;;;;;5035711;28;20028;-89
2022/06/09 09:10:22;;;;;;;3.15;0.52;;;19.00;99.90;;;;;;5042199;28;20041;-88
2022/06/09 09:13:20;;;;;;;2.53;0.40;;;18.90;99.90;;;;;;5038658;28;20021;-88
2022/06/09 09:15:53;;;;;;;2.72;0.45;;;18.70;99.90;;;;;;5029780;28;20055;-88
2022/06/09 09:18:37;;;;;;;2.92;0.30;;;18.70;99.90;;;;;;5028487;28;20101;-89
2022/06/09 09:21:21;;;;;;;2.08;0.40;;;18.70;99.90;;;;;;5040200;28;20091;-88
2022/06/09 09:23:55;;;;;;;3.80;0.75;;;18.60;99.90;;;;;;5043668;28;20032;-90
2022/06/09 09:26:39;;;;;;;2.38;0.68;;;18.60;99.90;;;;;;5050045;28;20579;-89
2022/06/09 09:29:18;;;;;;;2.80;0.40;;;18.60;99.90;;;;;;5049862;28;20050;-87
2022/06/09 09:32:13;;;;;;;1.70;0.30;;;18.70;99.90;;;;;;5048808;28;20033;-90
2022/06/09 09:34:44;;;;;;;7.47;0.73;;;18.90;99.90;;;;;;5032929;28;20094;-91
2022/06/09 09:37:33;;;;;;;2.75;0.50;;;19.00;99.90;;;;;;5044464;28;20048;-83
2022/06/09 09:40:28;;;;;;;4.63;0.60;;;19.10;99.90;;;;;;5030253;28;20033;-83
2022/06/09 09:42:58;;;;;;;4.93;0.70;;;19.30;99.90;;;;;;5026301;28;20084;-85
2022/06/09 09:45:35;;;;;;;2.35;0.50;;;19.50;99.90;;;;;;5054141;28;20032;-87
2022/06/09 09:48:03;;;;;;;1.95;0.70;;;19.80;99.90;;;;;;5029547;28;20032;-86
2022/06/09 09:50:52;;;;;;;4.00;0.80;;;19.90;99.90;;;;;;5031255;28;20040;-87
2022/06/09 09:53:18;;;;;;;1.40;0.60;;;20.00;99.90;;;;;;5049018;28;20039;-86
2022/06/09 09:56:07;;;;;;;4.53;1.30;;;20.00;99.90;;;;;;5043558;28;20014;-89
2022/06/09 09:58:38;;;;;;;3.88;0.77;;;20.00;99.90;;;;;;5039661;28;20550;-89
2022/06/09 10:01:26;;;;;;;4.27;1.20;;;20.10;99.90;;;;;;5048572;28;20074;-89
2022/06/09 10:09:53;;;;;;;3.70;0.73;;;20.40;99.90;;;;;;5044837;28;20027;-88
2022/06/09 10:12:29;;;;;;;3.05;1.27;;;20.60;99.90;;;;;;5039800;28;20032;-88
2022/06/09 10:15:10;;;;;;;3.17;0.93;;;20.80;99.90;;;;;;5028527;28;20025;-88
2022/06/09 10:17:48;;;;;;;3.42;0.80;;;20.90;99.90;;;;;;5028886;28;20032;-87
2022/06/09 10:20:20;;;;;;;4.70;0.93;;;21.00;99.90;;;;;;5041144;28;20021;-88
2022/06/09 10:23:01;;;;;;;;;;;21.10;99.90;;;;;;5041453;28;20029;-89
2022/06/09 10:25:27;;;;;;;3.45;0.88;;;21.20;99.90;;;;;;5024330;28;20353;-89
2022/06/09 10:27:59;;;;;;;6.18;1.13;;;21.40;99.90;;;;;;5032275;28;20021;-88
2022/06/09 10:30:37;;;;;;;5.75;0.70;;;21.50;99.90;;;;;;5035831;28;20065;-88
2022/06/09 10:33:12;;;;;;;5.00;0.85;;;21.50;99.90;;;;;;5038283;28;20030;-88
2022/06/09 10:35:46;;;;;;;5.40;0.90;;;21.60;99.90;;;;;;5039930;28;20052;-88
2022/06/09 10:38:43;;;;;;;4.53;0.73;;;21.80;99.90;;;;;;5043447;28;20033;-88
2022/06/09 10:41:13;;;;;;;6.13;0.85;;;21.90;99.90;;;;;;5047013;28;20028;-90
2022/06/09 10:43:42;;;;;;;3.35;0.95;;;22.00;99.90;;;;;;5048611;28;20025;-88
2022/06/09 10:46:34;;;;;;;3.72;0.80;;;22.10;99.90;;;;;;5049696;28;20026;-90
2022/06/09 10:55:49;;;;;;;4.53;1.00;;;22.20;99.90;;;;;;5050109;28;20408;-90
2022/06/09 10:58:30;;;;;;;3.58;1.05;;;22.40;99.90;;;;;;4969840;28;20026;-87
2022/06/09 11:00:57;;;;;;;5.70;1.20;;;22.50;99.90;;;;;;4958854;28;20054;-89
2022/06/09 11:03:40;;;;;;;2.97;0.80;;;22.40;99.90;;;;;;5011244;28;20039;-88
2022/06/09 11:06:32;;;;;;;4.88;1.08;;;22.30;99.90;;;;;;5048564;28;20021;-88
2022/06/09 11:09:07;;;;;;;3.88;0.70;;;22.20;99.90;;;;;;5033676;28;20088;-88
2022/06/09 11:11:56;;;;;;;10.93;0.80;;;21.90;99.90;;;;;;5030929;28;20037;-89
2022/06/09 11:14:44;;;;;;;5.60;0.90;;;21.50;99.90;;;;;;5030546;28;20439;-90
2022/06/09 11:17:22;;;;;;;2.33;0.43;;;21.30;99.90;;;;;;4993169;28;20029;-91
2022/06/09 11:20:15;;;;;;;3.47;0.95;;;21.00;99.90;;;;;;5026590;28;20026;-87
2022/06/09 11:23:04;;;;;;;5.50;0.60;;;20.80;99.90;;;;;;5035537;28;20060;-90
2022/06/09 11:26:00;;;;;;;3.90;0.40;;;20.70;99.90;;;;;;5026484;28;20037;-91
2022/06/09 11:28:51;;;;;;;5.28;0.70;;;20.80;99.90;;;;;;5023685;28;20037;-90
2022/06/09 11:31:38;;;;;;;4.25;0.57;;;20.90;99.90;;;;;;5038802;28;20064;-89
2022/06/09 11:34:24;;;;;;;4.05;0.50;;;20.90;99.90;;;;;;5039241;28;20044;-89
2022/06/09 11:37:02;;;;;;;2.15;0.40;;;20.90;99.90;;;;;;5029091;28;20044;-89
2022/06/09 11:39:51;;;;;;;3.00;0.50;;;21.10;99.90;;;;;;5042996;28;20511;-89
2022/06/09 11:42:58;;;;;;;6.60;0.65;;;21.30;99.80;;;;;;5045528;28;20071;-88
2022/06/09 11:45:34;;;;;;;5.60;0.45;;;21.70;99.60;;;;;;5043393;28;20033;-90
2022/06/09 11:48:04;;;;;;;6.28;0.30;;;21.80;97.80;;;;;;5043170;28;20036;-89
2022/06/09 11:50:40;;;;;;;5.28;0.57;;;21.50;96.40;;;;;;5032576;28;20034;-89
2022/06/09 11:53:06;;;;;;;3.97;0.30;;;21.20;96.30;;;;;;5042287;28;20060;-90
2022/06/09 11:58:44;;;;;;;2.42;0.30;;;21.00;96.10;;;;;;5040815;28;20171;-90
2022/06/09 12:01:15;;;;;;;1.98;0.30;;;21.00;96.30;;;;;;5041785;28;20025;-89
2022/06/09 12:04:15;;;;;;;2.95;0.30;;;21.10;95.70;;;;;;5041426;28;20067;-90
2022/06/09 12:06:56;;;;;;;4.70;0.38;;;21.20;96.20;;;;;;5047531;28;20082;-89
2022/06/09 12:09:50;;;;;;;4.68;0.30;;;21.40;95.80;;;;;;5025354;28;20394;-89
2022/06/09 12:12:28;;;;;;;3.63;0.35;;;21.60;95.30;;;;;;5045057;28;20484;-88
2022/06/09 12:15:13;;;;;;;3.78;0.30;;;21.60;94.70;;;;;;5026287;28;20083;-88
2022/06/09 12:17:55;;;;;;;3.17;0.40;;;21.60;94.00;;;;;;5038648;28;20032;-88
2022/06/09 12:20:32;;;;;;;3.47;0.30;;;21.70;93.80;;;;;;5041409;28;20029;-87
2022/06/09 12:23:21;;;;;;;5.13;0.57;;;21.80;94.10;;;;;;5029335;28;20393;-88
2022/06/09 12:26:13;;;;;;;3.25;0.60;;;22.00;93.30;;;;;;5037915;28;20056;-88
2022/06/09 12:28:52;;;;;;;6.85;1.30;;;22.10;93.20;;;;;;5024519;28;20036;-88
2022/06/09 12:31:37;;;;;;;6.35;0.40;;;22.30;92.70;;;;;;5048922;28;20135;-89
2022/06/09 12:34:11;;;;;;;3.65;0.40;;;22.20;91.90;;;;;;5042983;28;20033;-88
2022/06/09 12:37:00;;;;;;;5.55;0.50;;;22.20;92.40;;;;;;5042032;28;20047;-91
2022/06/09 12:39:36;;;;;;;2.35;0.22;;;22.20;91.60;;;;;;5030039;28;20051;-88
2022/06/09 12:42:51;;;;;;;5.75;0.68;;;22.00;90.70;;;;;;5023451;28;20025;-88
2022/06/09 12:45:25;;;;;;;3.63;0.30;;;21.90;91.10;;;;;;5007173;28;20040;-85
2022/06/09 12:47:51;;;;;;;3.28;0.40;;;21.80;91.10;;;;;;5029192;28;20025;-86
2022/06/09 12:50:50;;;;;;;5.25;0.60;;;21.90;91.40;;;;;;5038847;28;20069;-88
2022/06/09 12:53:23;;;;;;;2.20;0.30;;;22.10;91.20;;;;;;5029000;28;20029;-89
2022/06/09 12:55:56;;;;;;;5.82;0.93;;;22.20;91.20;;;;;;5026087;28;20556;-88
2022/06/09 12:58:31;;;;;;;3.15;0.30;;;22.50;90.60;;;;;;5023994;28;20028;-90
2022/06/09 13:01:00;;;;;;;2.90;0.30;;;22.60;90.00;;;;;;5045543;28;20021;-88
2022/06/09 13:03:32;;;;;;;4.53;0.88;;;22.70;90.20;;;;;;5025339;28;20374;-88
2022/06/09 13:06:12;;;;;;;4.75;0.40;;;22.80;90.10;;;;;;5051016;28;20540;-88
2022/06/09 13:08:44;;;;;;;4.53;0.57;;;23.00;89.40;;;;;;5050981;28;20967;-85
2022/06/09 13:14:22;;;;;;;6.03;0.30;;;23.10;89.20;;;;;;5043300;28;22480;-84
2022/06/09 13:16:50;;;;;;;2.97;0.40;;;23.00;88.50;;;;;;5025791;28;20108;-84
2022/06/09 13:19:19;;;;;;;2.72;0.40;;;22.70;87.90;;;;;;5033193;28;20021;-84
2022/06/09 13:21:46;;;;;;;4.10;0.40;;;22.50;87.80;;;;;;5024662;28;20500;-85
2022/06/09 13:24:28;;;;;;;3.10;0.30;;;22.40;87.40;;;;;;5027407;28;20100;-86
2022/06/09 13:26:55;;;;;;;3.85;0.82;;;22.50;87.70;;;;;;5039329;28;20029;-85
2022/06/09 13:29:35;;;;;;;4.60;0.35;;;22.30;86.70;;;;;;5041700;28;20037;-85
2022/06/09 13:32:25;;;;;;;6.43;0.43;;;22.20;87.30;;;;;;5032887;28;20098;-86
2022/06/09 13:34:54;;;;;;;4.75;0.50;;;22.30;87.80;;;;;;5028789;28;20049;-86
2022/06/09 13:37:23;;;;;;;4.25;0.40;;;22.30;87.40;;;;;;5030497;28;20048;-86